Back to Top

Language: 

My Weather Underground Personal Weather Station Historical Data with Graphs...

Delerius Weather Station Historical Data
Daily Summary for February 6, 2017 Units:  Metric    English   Both
« Previous Day
Next Day »
Daily Weekly Monthly Yearly Custom
  High: Low: Average:
Temperature: 6.3 °C -2.6 °C 1.8 °C
Dew Point: 4.1 °C -3.2 °C 0.7 °C
Humidity: 98 % 78 % 92 %
Wind Speed: 24.1 km/h 0 km/h 7.6 km/h
Wind Gust: 30.6 km/h - -
Wind:- - SSE
Pressure: 1018.2 hPa 1010.7 hPa -
Precipitation: 3.81 mm    
Historical Graphs
 
 
Tabular Data for February 6, 2017
Time Temperature Dew Point Pressure Wind Wind Speed Wind Gust Humidity Rainfall Rate (Hourly) solar Conditions
00:00 0.1 °C -0.9 °C 1015.5 hPa Calm   -1607.7 km/h 93 % 0 mm 0 W/m2
00:05 0.1 °C -0.9 °C 1015.5 hPa Calm   -1607.7 km/h 93 % 0 mm 0 W/m2
00:10 0.1 °C -0.9 °C 1015.5 hPa Calm   -1607.7 km/h 93 % 0 mm 0 W/m2
00:15 0.1 °C -0.9 °C 1015.5 hPa Calm   -1607.7 km/h 93 % 0 mm 0 W/m2
00:20 0.1 °C -0.9 °C 1015.5 hPa Calm   -1607.7 km/h 93 % 0 mm 0 W/m2
00:25 -0.5 °C -1.3 °C 1015.5 hPa Calm   -1607.7 km/h 94 % 0 mm 0 W/m2
00:30 -0.5 °C -1.3 °C 1015.5 hPa Calm   -1607.7 km/h 94 % 0 mm 0 W/m2
00:35 -0.5 °C -1.3 °C 1015.5 hPa Calm   -1607.7 km/h 94 % 0 mm 0 W/m2
00:40 -0.5 °C -1.2 °C 1015.5 hPa Calm   -1607.7 km/h 95 % 0 mm 0 W/m2
00:45 -0.5 °C -1.2 °C 1015.5 hPa Calm   -1607.7 km/h 95 % 0 mm 0 W/m2
00:50 -0.5 °C -1.2 °C 1015.5 hPa Calm   -1607.7 km/h 95 % 0 mm 0 W/m2
00:55 -0.2 °C -0.9 °C 1015.5 hPa Calm   -1607.7 km/h 95 % 0 mm 0 W/m2
01:00 -0.2 °C -0.9 °C 1015.5 hPa Calm   -1607.7 km/h 95 % 0 mm 0 W/m2
01:05 -0.2 °C -0.9 °C 1015.5 hPa Calm   -1607.7 km/h 95 % 0 mm 0 W/m2
01:10 -0.2 °C -0.9 °C 1015.8 hPa Calm   -1607.7 km/h 95 % 0 mm 0 W/m2
01:15 -0.2 °C -0.9 °C 1015.8 hPa Calm   -1607.7 km/h 95 % 0 mm 0 W/m2
01:20 -0.2 °C -0.9 °C 1015.8 hPa Calm   -1607.7 km/h 95 % 0 mm 0 W/m2
01:25 -0.3 °C -1.1 °C 1016.1 hPa Calm   -1607.7 km/h 95 % 0 mm 0 W/m2
01:30 -0.3 °C -1.1 °C 1016.1 hPa Calm   -1607.7 km/h 95 % 0 mm 0 W/m2
01:35 -0.3 °C -1.1 °C 1016.1 hPa Calm   -1607.7 km/h 95 % 0 mm 0 W/m2
01:40 -0.3 °C -0.9 °C 1016.5 hPa Calm   -1607.7 km/h 96 % 0 mm 0 W/m2
01:45 -0.3 °C -0.9 °C 1016.5 hPa Calm   -1607.7 km/h 96 % 0 mm 0 W/m2
01:50 -0.3 °C -0.9 °C 1016.5 hPa Calm   -1607.7 km/h 96 % 0 mm 0 W/m2
01:55 -0.2 °C -0.7 °C 1016.5 hPa Calm   -1607.7 km/h 96 % 0 mm 0 W/m2
02:00 -0.2 °C -0.7 °C 1016.5 hPa Calm   -1607.7 km/h 96 % 0 mm 0 W/m2
02:05 -0.2 °C -0.7 °C 1016.5 hPa Calm   -1607.7 km/h 96 % 0 mm 0 W/m2
02:10 -0.1 °C -0.7 °C 1016.1 hPa Calm   -1607.7 km/h 96 % 0 mm 0 W/m2
02:15 -0.1 °C -0.7 °C 1016.1 hPa Calm   -1607.7 km/h 96 % 0 mm 0 W/m2
02:20 -0.1 °C -0.7 °C 1016.1 hPa Calm   -1607.7 km/h 96 % 0 mm 0 W/m2
02:25 -0.3 °C -1 °C 1016.1 hPa Calm   -1607.7 km/h 95 % 0 mm 0 W/m2
02:30 -0.3 °C -1 °C 1016.1 hPa Calm   -1607.7 km/h 95 % 0 mm 0 W/m2
02:35 -0.3 °C -1 °C 1016.1 hPa Calm   -1607.7 km/h 95 % 0 mm 0 W/m2
02:40 -0.4 °C -1 °C 1016.1 hPa Calm   -1607.7 km/h 96 % 0 mm 0 W/m2
02:45 -0.4 °C -1 °C 1016.1 hPa Calm   -1607.7 km/h 96 % 0 mm 0 W/m2
02:50 -0.4 °C -1 °C 1016.1 hPa Calm   -1607.7 km/h 96 % 0 mm 0 W/m2
02:55 -0.6 °C -1.1 °C 1016.5 hPa Calm   -1607.7 km/h 96 % 0 mm 0 W/m2
03:00 -0.6 °C -1.1 °C 1016.5 hPa Calm   -1607.7 km/h 96 % 0 mm 0 W/m2
03:05 -0.6 °C -1.1 °C 1016.5 hPa Calm   -1607.7 km/h 96 % 0 mm 0 W/m2
03:10 -0.7 °C -1.3 °C 1016.5 hPa Calm   -1607.7 km/h 96 % 0 mm 0 W/m2
03:15 -0.7 °C -1.3 °C 1016.5 hPa Calm   -1607.7 km/h 96 % 0 mm 0 W/m2
03:20 -0.7 °C -1.3 °C 1016.5 hPa Calm   -1607.7 km/h 96 % 0 mm 0 W/m2
03:25 -0.7 °C -1.3 °C 1016.8 hPa Calm   -1607.7 km/h 96 % 0 mm 0 W/m2
03:30 -0.7 °C -1.3 °C 1016.8 hPa Calm   -1607.7 km/h 96 % 0 mm 0 W/m2
03:35 -0.7 °C -1.3 °C 1016.8 hPa Calm   -1607.7 km/h 96 % 0 mm 0 W/m2
03:40 -0.8 °C -1.3 °C 1016.8 hPa Calm   -1607.7 km/h 96 % 0 mm 0 W/m2
03:45 -0.8 °C -1.3 °C 1016.8 hPa Calm   -1607.7 km/h 96 % 0 mm 0 W/m2
03:50 -0.8 °C -1.3 °C 1016.8 hPa Calm   -1607.7 km/h 96 % 0 mm 0 W/m2
03:55 -1 °C -1.6 °C 1017.2 hPa Calm   -1607.7 km/h 96 % 0 mm 0 W/m2
04:00 -1 °C -1.6 °C 1017.2 hPa Calm   -1607.7 km/h 96 % 0 mm 0 W/m2
04:05 -1 °C -1.6 °C 1017.2 hPa Calm   -1607.7 km/h 96 % 0 mm 0 W/m2
04:10 -1.2 °C -1.7 °C 1017.2 hPa Calm   -1607.7 km/h 96 % 0 mm 0 W/m2
04:15 -1.2 °C -1.7 °C 1017.2 hPa Calm   -1607.7 km/h 96 % 0 mm 0 W/m2
04:20 -1.2 °C -1.7 °C 1017.2 hPa Calm   -1607.7 km/h 96 % 0 mm 0 W/m2
04:25 -1 °C -1.6 °C 1017.2 hPa Calm   -1607.7 km/h 96 % 0 mm 0 W/m2
04:30 -1 °C -1.6 °C 1017.2 hPa Calm   -1607.7 km/h 96 % 0 mm 0 W/m2
04:35 -1 °C -1.6 °C 1017.2 hPa Calm   -1607.7 km/h 96 % 0 mm 0 W/m2
04:40 -1.1 °C -1.7 °C 1017.2 hPa Calm   -1607.7 km/h 96 % 0 mm 0 W/m2
04:45 -1.1 °C -1.7 °C 1017.2 hPa Calm   -1607.7 km/h 96 % 0 mm 0 W/m2
04:50 -1.1 °C -1.7 °C 1017.2 hPa Calm   -1607.7 km/h 96 % 0 mm 0 W/m2
04:55 -1.4 °C -2 °C 1017.5 hPa Calm   -1607.7 km/h 96 % 0 mm 0 W/m2
05:00 -1.4 °C -2 °C 1017.5 hPa Calm   -1607.7 km/h 96 % 0 mm 0 W/m2
05:05 -1.4 °C -2 °C 1017.5 hPa Calm   -1607.7 km/h 96 % 0 mm 0 W/m2
05:10 -1.6 °C -2.2 °C 1017.5 hPa Calm   -1607.7 km/h 96 % 0 mm 0 W/m2
05:15 -1.6 °C -2.2 °C 1017.5 hPa Calm   -1607.7 km/h 96 % 0 mm 0 W/m2
05:20 -1.6 °C -2.2 °C 1017.5 hPa Calm   -1607.7 km/h 96 % 0 mm 0 W/m2
05:25 -1.8 °C -2.3 °C 1017.8 hPa Calm   -1607.7 km/h 96 % 0 mm 0 W/m2
05:30 -1.8 °C -2.3 °C 1017.8 hPa Calm   -1607.7 km/h 96 % 0 mm 0 W/m2
05:35 -1.8 °C -2.3 °C 1017.8 hPa Calm   -1607.7 km/h 96 % 0 mm 0 W/m2
05:40 -2.1 °C -2.7 °C 1017.8 hPa Calm   -1607.7 km/h 96 % 0 mm 0 W/m2
05:45 -2.1 °C -2.7 °C 1017.8 hPa Calm   -1607.7 km/h 96 % 0 mm 0 W/m2
05:50 -2.1 °C -2.7 °C 1017.8 hPa Calm   -1607.7 km/h 96 % 0 mm 0 W/m2
05:55 -2.1 °C -2.7 °C 1017.8 hPa Calm   -1607.7 km/h 96 % 0 mm 0 W/m2
06:00 -2.1 °C -2.7 °C 1017.8 hPa Calm   -1607.7 km/h 96 % 0 mm 0 W/m2
06:05 -2.1 °C -2.7 °C 1017.8 hPa Calm   -1607.7 km/h 96 % 0 mm 0 W/m2
06:10 -2 °C -2.6 °C 1017.8 hPa Calm   -1607.7 km/h 96 % 0 mm 0 W/m2
06:15 -2 °C -2.6 °C 1017.8 hPa Calm   -1607.7 km/h 96 % 0 mm 0 W/m2
06:20 -2 °C -2.6 °C 1017.8 hPa Calm   -1607.7 km/h 96 % 0 mm 0 W/m2
06:25 -2.1 °C -2.6 °C 1017.5 hPa Calm   -1607.7 km/h 96 % 0 mm 0 W/m2
06:30 -2.1 °C -2.6 °C 1017.5 hPa Calm   -1607.7 km/h 96 % 0 mm 0 W/m2
06:35 -2.1 °C -2.6 °C 1017.5 hPa Calm   -1607.7 km/h 96 % 0 mm 0 W/m2
06:40 -2.3 °C -2.8 °C 1017.5 hPa Calm     96 % 0 mm 0 W/m2
06:45 -2.4 °C -2.9 °C 1017.5 hPa Calm     96 % 0 mm 0 W/m2
06:50 -2.5 °C -3.1 °C 1017.5 hPa Calm     96 % 0 mm 0 W/m2
06:55 -2.5 °C -3.1 °C 1017.5 hPa Calm     96 % 0 mm 0 W/m2
07:00 -2.4 °C -3 °C 1017.5 hPa Calm     96 % 0 mm 0 W/m2
07:05 -2.3 °C -2.7 °C 1017.5 hPa Calm     97 % 0 mm 0 W/m2
07:10 -2.4 °C -2.9 °C 1017.5 hPa Calm   -1607.7 km/h 96 % 0 mm 0 W/m2
07:15 -2.4 °C -3 °C 1017.5 hPa Calm     96 % 0 mm 0 W/m2
07:20 -2.4 °C -3 °C 1017.5 hPa Calm     96 % 0 mm 0 W/m2
07:25 -2.4 °C -2.8 °C 1017.5 hPa Calm     97 % 0 mm 0 W/m2
07:30 -2.4 °C -2.8 °C 1017.5 hPa Calm     97 % 0 mm 0 W/m2
07:35 -2.4 °C -3 °C 1017.5 hPa Calm     96 % 0 mm 5 W/m2
07:40 -2.5 °C -3.1 °C 1017.8 hPa Calm     96 % 0 mm 5 W/m2
07:50 -2.6 °C -3.2 °C 1017.8 hPa Calm     96 % 0 mm 9 W/m2
07:55 -2.6 °C -3.1 °C 1017.8 hPa Calm     96 % 0 mm 12 W/m2
08:00 -2.6 °C -3.1 °C 1017.8 hPa Calm     96 % 0 mm 14 W/m2
08:05 -2.4 °C -2.8 °C 1017.8 hPa Calm     97 % 0 mm 14 W/m2
08:10 -2.4 °C -2.8 °C 1017.8 hPa Calm     97 % 0 mm 18 W/m2
08:20 -2.3 °C -2.7 °C 1017.8 hPa Calm     97 % 0 mm 33 W/m2
08:25 -2.2 °C -2.6 °C 1017.8 hPa Calm     97 % 0 mm 37 W/m2
08:30 -2.1 °C -2.5 °C 1017.8 hPa Calm     97 % 0 mm 37 W/m2
08:35 -2.1 °C -2.4 °C 1017.8 hPa Calm     97 % 0 mm 35 W/m2
08:40 -2 °C -2.4 °C 1017.8 hPa Calm     97 % 0 mm 40 W/m2
08:45 -2 °C -2.4 °C 1017.8 hPa Calm     97 % 0 mm 51 W/m2
08:55 -1.8 °C -2.2 °C 1017.8 hPa Calm     97 % 0 mm 83 W/m2
09:00 -1.6 °C -1.9 °C 1017.8 hPa Calm     97 % 0 mm 91 W/m2
09:05 -1.4 °C -1.8 °C 1017.8 hPa Calm     97 % 0 mm 118 W/m2
09:10 -1.2 °C -1.6 °C 1017.8 hPa Calm     97 % 0 mm 90 W/m2
09:15 -1.1 °C -1.4 °C 1017.8 hPa Calm     97 % 0 mm 70 W/m2
09:25 -0.7 °C -1.1 °C 1017.8 hPa Calm     97 % 0 mm 65 W/m2
09:30 -0.6 °C -0.8 °C 1018.2 hPa Calm     98 % 0 mm 127 W/m2
09:35 -0.4 °C -0.9 °C 1018.2 hPa Calm     97 % 0 mm 232 W/m2
09:40 -0.2 °C -0.6 °C 1018.2 hPa Calm     97 % 0 mm 202 W/m2
09:45 0.1 °C -0.2 °C 1018.2 hPa Calm     98 % 0 mm 243 W/m2
09:50 0.3 °C -0.1 °C 1017.8 hPa Calm     97 % 0 mm 250 W/m2
10:00 1.1 °C 0.8 °C 1017.8 hPa Calm     98 % 0 mm 290 W/m2
10:05 1.6 °C 1.3 °C 1017.8 hPa Calm     98 % 0 mm 294 W/m2
10:10 1.9 °C 1.7 °C 1017.8 hPa Calm     98 % 0 mm 185 W/m2
10:15 2.2 °C 1.9 °C 1017.8 hPa Calm   3.2 km/h 98 % 0 mm 163 W/m2
10:20 2.3 °C 2.1 °C 1017.8 hPa SE 1.6 km/h 3.2 km/h 98 % 0 mm 169 W/m2
10:30 2.6 °C 2.2 °C 1017.5 hPa ESE 3.2 km/h 3.2 km/h 97 % 0 mm 172 W/m2
10:35 2.7 °C 2.3 °C 1017.8 hPa ESE 1.6 km/h 3.2 km/h 97 % 0 mm 214 W/m2
10:40 2.9 °C 2.4 °C 1017.5 hPa Calm     97 % 0 mm 197 W/m2
10:45 3.1 °C 2.7 °C 1017.8 hPa ESE 1.6 km/h 1.6 km/h 97 % 0 mm 171 W/m2
10:50 3.2 °C 2.8 °C 1017.8 hPa Calm   1.6 km/h 97 % 0 mm 165 W/m2
10:55 3.2 °C 2.7 °C 1017.5 hPa ESE 1.6 km/h 1.6 km/h 96 % 0 mm 160 W/m2
11:05 3.2 °C 2.5 °C 1017.5 hPa East 1.6 km/h 4.8 km/h 95 % 0 mm 144 W/m2
11:10 3.3 °C 2.6 °C 1017.5 hPa East 1.6 km/h 1.6 km/h 95 % 0 mm 316 W/m2
11:15 3.6 °C 3.1 °C 1017.5 hPa Calm   3.2 km/h 96 % 0 mm 390 W/m2
11:20 4 °C 3.3 °C 1017.5 hPa East 1.6 km/h 3.2 km/h 95 % 0 mm 410 W/m2
11:25 4.4 °C 3.7 °C 1017.5 hPa East 1.6 km/h 3.2 km/h 95 % 0 mm 399 W/m2
11:35 5 °C 3.9 °C 1017.5 hPa South 8 km/h 9.7 km/h 93 % 0 mm 394 W/m2
11:40 5.3 °C 4.1 °C 1017.5 hPa SSE 8 km/h 9.7 km/h 92 % 0 mm 388 W/m2
11:45 5.4 °C 3.9 °C 1017.2 hPa SSE 9.7 km/h 9.7 km/h 90 % 0 mm 401 W/m2
11:50 5.6 °C 3.9 °C 1017.2 hPa SSE 9.7 km/h 9.7 km/h 89 % 0 mm 132 W/m2
11:55 5.4 °C 3.8 °C 1017.2 hPa SE 9.7 km/h 14.5 km/h 89 % 0 mm 125 W/m2
12:00 5.4 °C 3.7 °C 1017.2 hPa SE 9.7 km/h 9.7 km/h 89 % 0 mm 448 W/m2
12:15 5.6 °C 3.6 °C 1017.2 hPa SE 11.3 km/h 16.1 km/h 87 % 0 mm 171 W/m2
12:20 5.4 °C 3.4 °C 1016.8 hPa South 12.9 km/h 12.9 km/h 87 % 0 mm 171 W/m2
12:25 5.6 °C 3.7 °C 1016.5 hPa SE 9.7 km/h 16.1 km/h 88 % 0 mm 397 W/m2
12:30 5.6 °C 3.4 °C 1016.5 hPa SSE 11.3 km/h 11.3 km/h 86 % 0 mm 211 W/m2
12:40 5.7 °C 3.6 °C 1016.5 hPa SSW 11.3 km/h 14.5 km/h 86 % 0 mm 241 W/m2
12:45 5.9 °C 3.7 °C 1016.5 hPa South 11.3 km/h 16.1 km/h 86 % 0 mm 243 W/m2
12:50 6 °C 3.7 °C 1016.5 hPa SSE 11.3 km/h 11.3 km/h 85 % 0 mm 287 W/m2
12:55 6.2 °C 3.7 °C 1016.1 hPa SSE 12.9 km/h 12.9 km/h 84 % 0 mm 301 W/m2
13:00 6.3 °C 3.6 °C 1016.1 hPa SE 14.5 km/h 16.1 km/h 83 % 0 mm 251 W/m2
13:05 6.3 °C 3.7 °C 1016.1 hPa SSE 14.5 km/h 16.1 km/h 83 % 0 mm 181 W/m2
13:15 6.3 °C 3.3 °C 1015.8 hPa South 17.7 km/h 17.7 km/h 81 % 0 mm 193 W/m2
13:20 6.2 °C 3.2 °C 1015.8 hPa SSE 19.3 km/h 19.3 km/h 81 % 0 mm 213 W/m2
13:25 6.2 °C 3.2 °C 1015.8 hPa South 16.1 km/h 19.3 km/h 81 % 0 mm 128 W/m2
13:30 6.2 °C 3.2 °C 1015.5 hPa SSE 14.5 km/h 16.1 km/h 81 % 0 mm 121 W/m2
13:35 6.1 °C 3.1 °C 1015.1 hPa South 16.1 km/h 16.1 km/h 81 % 0 mm 134 W/m2
13:45 6 °C 3 °C 1015.1 hPa South 17.7 km/h 20.9 km/h 81 % 0 mm 109 W/m2
13:50 5.9 °C 2.9 °C 1015.1 hPa SSE 17.7 km/h 20.9 km/h 81 % 0 mm 120 W/m2
13:55 5.9 °C 2.9 °C 1015.1 hPa South 16.1 km/h 20.9 km/h 81 % 0 mm 134 W/m2
14:00 6 °C 3 °C 1015.1 hPa SE 14.5 km/h 14.5 km/h 81 % 0 mm 137 W/m2
14:05 6.1 °C 3.2 °C 1014.8 hPa SSE 12.9 km/h 16.1 km/h 82 % 0 mm 127 W/m2
14:10 6.1 °C 3.1 °C 1014.8 hPa South 12.9 km/h 16.1 km/h 81 % 0 mm 125 W/m2
14:20 6.1 °C 3.1 °C 1014.8 hPa SSE 16.1 km/h 16.1 km/h 81 % 0 mm 107 W/m2
14:25 6.1 °C 3.1 °C 1014.8 hPa SSE 12.9 km/h 16.1 km/h 81 % 0 mm 113 W/m2
14:30 6.1 °C 2.9 °C 1014.8 hPa South 16.1 km/h 16.1 km/h 80 % 0 mm 102 W/m2
14:35 6.1 °C 3.1 °C 1014.8 hPa SSW 17.7 km/h 17.7 km/h 81 % 0 mm 90 W/m2
14:40 6.1 °C 3.1 °C 1014.8 hPa South 12.9 km/h 12.9 km/h 81 % 0 mm 86 W/m2
14:50 6.1 °C 3.3 °C 1014.8 hPa SSE 11.3 km/h 20.9 km/h 82 % 0 mm 86 W/m2
14:55 6.1 °C 3.1 °C 1014.8 hPa SSE 11.3 km/h 20.9 km/h 81 % 0 mm 90 W/m2
15:00 6.1 °C 3.1 °C 1014.8 hPa SSE 12.9 km/h 16.1 km/h 81 % 0 mm 77 W/m2
15:05 6.1 °C 2.9 °C 1014.8 hPa SSE 12.9 km/h 16.1 km/h 80 % 0 mm 62 W/m2
15:10 6.1 °C 2.9 °C 1014.4 hPa SE 14.5 km/h 25.7 km/h 80 % 0 mm 67 W/m2
15:15 6.1 °C 3.1 °C 1014.4 hPa SE 14.5 km/h 25.7 km/h 81 % 0 mm 77 W/m2
15:25 6.1 °C 3.1 °C 1014.4 hPa SE 16.1 km/h 19.3 km/h 81 % 0 mm 74 W/m2
15:30 6.1 °C 2.9 °C 1014.1 hPa SE 17.7 km/h 19.3 km/h 80 % 0 mm 72 W/m2
15:35 6.1 °C 3.1 °C 1014.1 hPa ESE 17.7 km/h 19.3 km/h 81 % 0 mm 63 W/m2
15:40 6.1 °C 3.1 °C 1014.1 hPa SE 16.1 km/h 20.9 km/h 81 % 0 mm 51 W/m2
15:45 6 °C 3 °C 1014.1 hPa SSE 16.1 km/h 20.9 km/h 81 % 0 mm 40 W/m2
15:55 5.9 °C 2.8 °C 1014.1 hPa South 14.5 km/h 20.9 km/h 80 % 0 mm 23 W/m2
16:00 5.9 °C 2.5 °C 1014.1 hPa SSE 16.1 km/h 25.7 km/h 79 % 0 mm 21 W/m2
16:05 5.9 °C 2.5 °C 1014.1 hPa SE 16.1 km/h 25.7 km/h 79 % 0 mm 21 W/m2
16:15 5.9 °C 2.5 °C 1014.1 hPa SE 16.1 km/h 17.7 km/h 79 % 0 mm 26 W/m2
16:20 5.8 °C 2.4 °C 1014.1 hPa SSE 16.1 km/h 16.1 km/h 79 % 0 mm 23 W/m2
16:25 5.8 °C 2.3 °C 1014.1 hPa SSE 17.7 km/h 17.7 km/h 78 % 0 mm 18 W/m2
16:35 5.8 °C 2.4 °C 1014.1 hPa SE 14.5 km/h 16.1 km/h 79 % 0 mm 9 W/m2
16:40 5.8 °C 2.6 °C 1013.8 hPa SSE 12.9 km/h 12.9 km/h 80 % 0 mm 7 W/m2
16:45 5.7 °C 2.7 °C 1013.8 hPa SE 11.3 km/h 12.9 km/h 81 % 0 mm 5 W/m2
16:50 5.7 °C 3 °C 1013.8 hPa SE 11.3 km/h 14.5 km/h 83 % 0 mm 0 W/m2
16:55 5.6 °C 2.9 °C 1013.8 hPa ESE 14.5 km/h 14.5 km/h 83 % 0 mm 0 W/m2
17:05 5.5 °C 3 °C 1013.8 hPa SE 16.1 km/h 16.1 km/h 84 % 0 mm 0 W/m2
17:10 5.4 °C 3.1 °C 1013.8 hPa SE 16.1 km/h 29 km/h 85 % 0 mm 0 W/m2
17:15 5.4 °C 3.2 °C 1013.8 hPa SSE 14.5 km/h 29 km/h 86 % 0 mm 0 W/m2
17:20 5.3 °C 3.2 °C 1013.4 hPa SSE 16.1 km/h 16.1 km/h 86 % 0 mm 0 W/m2
17:25 5.2 °C 3.2 °C 1013.8 hPa SE 16.1 km/h 20.9 km/h 87 % 0 mm 0 W/m2
17:35 5.1 °C 3.4 °C 1013.8 hPa South 16.1 km/h 16.1 km/h 89 % 0 mm 0 W/m2
17:40 5 °C 3.3 °C 1013.4 hPa SE 16.1 km/h 19.3 km/h 89 % 0 mm 0 W/m2
17:45 4.9 °C 3.2 °C 1013.8 hPa South 16.1 km/h 19.3 km/h 89 % 0 mm 0 W/m2
17:50 4.8 °C 3.3 °C 1013.8 hPa SSE 12.9 km/h 17.7 km/h 90 % 0 mm 0 W/m2
17:55 4.7 °C 3.2 °C 1013.8 hPa SSE 14.5 km/h 19.3 km/h 90 % 0 mm 0 W/m2
18:00 4.6 °C 3.1 °C 1013.8 hPa South 17.7 km/h 19.3 km/h 90 % 1.27 mm 0 W/m2
18:10 4.4 °C 2.9 °C 1013.4 hPa SE 16.1 km/h 16.1 km/h 90 % 1.27 mm 0 W/m2
18:15 4.4 °C 2.9 °C 1013.4 hPa SSE 12.9 km/h 16.1 km/h 90 % 1.02 mm 0 W/m2
18:20 4.3 °C 2.8 °C 1013.4 hPa SE 14.5 km/h 16.1 km/h 90 % 0 mm 0 W/m2
18:25 4.2 °C 2.9 °C 1013.4 hPa SSE 16.1 km/h 19.3 km/h 91 % 0 mm 0 W/m2
18:30 4.1 °C 2.8 °C 1013.4 hPa South 17.7 km/h 17.7 km/h 91 % 0 mm 0 W/m2
18:40 4 °C 2.7 °C 1013.4 hPa SE 17.7 km/h 17.7 km/h 91 % 0 mm 0 W/m2
18:45 3.8 °C 2.7 °C 1013.1 hPa SE 17.7 km/h 20.9 km/h 92 % 0 mm 0 W/m2
18:50 3.8 °C 2.6 °C 1013.1 hPa SSE 19.3 km/h 19.3 km/h 92 % 0 mm 0 W/m2
18:55 3.6 °C 2.4 °C 1013.1 hPa SE 16.1 km/h 20.9 km/h 92 % 0 mm 0 W/m2
19:00 3.6 °C 2.4 °C 1013.1 hPa SE 16.1 km/h 17.7 km/h 92 % 0 mm 0 W/m2
19:05 3.5 °C 2.5 °C 1013.1 hPa SSE 16.1 km/h 22.5 km/h 93 % 0 mm 0 W/m2
19:15 3.4 °C 2.4 °C 1013.1 hPa SSE 16.1 km/h 17.7 km/h 93 % 1.78 mm 0 W/m2
19:20 3.4 °C 2.4 °C 1013.1 hPa SE 16.1 km/h 16.1 km/h 93 % 1.27 mm 0 W/m2
19:25 3.4 °C 2.5 °C 1013.1 hPa SE 16.1 km/h 16.1 km/h 94 % 1.27 mm 0 W/m2
19:45 3.4 °C 2.5 °C 1012.8 hPa SE 19.3 km/h 19.3 km/h 94 % 1.02 mm 0 W/m2
19:50 3.4 °C 2.5 °C 1012.4 hPa SSE 17.7 km/h 19.3 km/h 94 % 0 mm 0 W/m2
20:00 3.4 °C 2.5 °C 1012.4 hPa SE 17.7 km/h 19.3 km/h 94 % 0 mm 0 W/m2
20:05 3.4 °C 2.5 °C 1012.4 hPa SE 17.7 km/h 19.3 km/h 94 % 1.52 mm 0 W/m2
20:10 3.3 °C 2.4 °C 1012.4 hPa SSE 19.3 km/h 19.3 km/h 94 % 1.78 mm 0 W/m2
20:15 3.3 °C 2.4 °C 1012.4 hPa SSE 20.9 km/h 25.7 km/h 94 % 3.3 mm 0 W/m2
20:20 3.1 °C 2.2 °C 1012.4 hPa South 24.1 km/h 29 km/h 94 % 2.79 mm 0 W/m2
20:25 3.1 °C 2.2 °C 1012.4 hPa SE 22.5 km/h 29 km/h 94 % 1.52 mm 0 W/m2
20:35 3.1 °C 2.2 °C 1012.4 hPa SE 20.9 km/h 30.6 km/h 94 % 0 mm 0 W/m2
20:40 3.1 °C 2.2 °C 1012.1 hPa SE 17.7 km/h 30.6 km/h 94 % 0 mm 0 W/m2
20:45 3.1 °C 2.2 °C 1012.1 hPa SE 17.7 km/h 30.6 km/h 94 % 0 mm 0 W/m2
20:50 3.1 °C 2.2 °C 1012.1 hPa SE 17.7 km/h 30.6 km/h 94 % 0 mm 0 W/m2
21:00 3.1 °C 2.3 °C 1012.1 hPa SE 19.3 km/h 19.3 km/h 95 % 0 mm 0 W/m2
21:05 3.1 °C 2.3 °C 1012.1 hPa SE 14.5 km/h 30.6 km/h 95 % 0 mm 0 W/m2
21:10 3 °C 2.3 °C 1011.7 hPa ESE 14.5 km/h 30.6 km/h 95 % 2.54 mm 0 W/m2
21:20 3 °C 2.3 °C 1011.7 hPa SSE 17.7 km/h 30.6 km/h 95 % 1.27 mm 0 W/m2
21:25 2.9 °C 2.2 °C 1012.1 hPa SSE 17.7 km/h 30.6 km/h 95 % 1.27 mm 0 W/m2
21:30 2.8 °C 2.1 °C 1012.1 hPa SE 19.3 km/h 19.3 km/h 95 % 3.56 mm 0 W/m2
21:40 2.7 °C 2 °C 1011.7 hPa ESE 19.3 km/h 30.6 km/h 95 % 2.03 mm 0 W/m2
21:45 2.8 °C 2.1 °C 1011.7 hPa SSW 19.3 km/h 30.6 km/h 95 % 1.27 mm 0 W/m2
21:50 2.8 °C 2.1 °C 1011.7 hPa SE 17.7 km/h 30.6 km/h 95 % 0 mm 0 W/m2
21:55 2.8 °C 2.1 °C 1011.7 hPa South 16.1 km/h 30.6 km/h 95 % 0 mm 0 W/m2
22:00 2.8 °C 2.1 °C 1011.7 hPa ESE 14.5 km/h 14.5 km/h 95 % 0 mm 0 W/m2
22:05 2.8 °C 2.1 °C 1011.7 hPa SE 14.5 km/h 16.1 km/h 95 % 0 mm 0 W/m2
22:15 2.9 °C 2.3 °C 1011.4 hPa ESE 16.1 km/h 30.6 km/h 96 % 0 mm 0 W/m2
22:20 2.9 °C 2.3 °C 1011.1 hPa SE 16.1 km/h 16.1 km/h 96 % 0 mm 0 W/m2
22:25 2.9 °C 2.3 °C 1011.1 hPa SSE 19.3 km/h 24.1 km/h 96 % 0 mm 0 W/m2
22:30 2.9 °C 2.4 °C 1011.1 hPa SSE 19.3 km/h 19.3 km/h 96 % 0 mm 0 W/m2
22:35 2.9 °C 2.4 °C 1011.1 hPa SE 17.7 km/h 25.7 km/h 96 % 0 mm 0 W/m2
22:45 2.9 °C 2.3 °C 1010.7 hPa SSE 19.3 km/h 30.6 km/h 96 % 0 mm 0 W/m2
22:50 2.9 °C 2.3 °C 1011.1 hPa SSE 17.7 km/h 30.6 km/h 96 % 0 mm 0 W/m2
22:55 2.9 °C 2.3 °C 1011.1 hPa ESE 16.1 km/h 30.6 km/h 96 % 0 mm 0 W/m2
23:00 2.9 °C 2.4 °C 1011.1 hPa SSE 14.5 km/h 14.5 km/h 96 % 0 mm 0 W/m2
23:05 2.9 °C 2.4 °C 1011.1 hPa SE 14.5 km/h 17.7 km/h 96 % 0 mm 0 W/m2
23:10 3 °C 2.4 °C 1010.7 hPa ESE 16.1 km/h 16.1 km/h 96 % 0 mm 0 W/m2
23:20 3.1 °C 2.6 °C 1010.7 hPa SE 16.1 km/h 16.1 km/h 96 % 0 mm 0 W/m2
23:25 3.2 °C 2.7 °C 1010.7 hPa SE 16.1 km/h 30.6 km/h 97 % 0 mm 0 W/m2
23:30 3.2 °C 2.8 °C 1010.7 hPa ESE 14.5 km/h 14.5 km/h 97 % 0 mm 0 W/m2
23:35 3.2 °C 2.8 °C 1010.7 hPa SSE 14.5 km/h 30.6 km/h 97 % 0 mm 0 W/m2
23:40 3.3 °C 2.8 °C 1011.1 hPa SSE 12.9 km/h 30.6 km/h 97 % 0 mm 0 W/m2
23:50 3.3 °C 2.9 °C 1011.1 hPa ESE 12.9 km/h 30.6 km/h 97 % 0 mm 0 W/m2
23:55 3.3 °C 2.9 °C 1010.7 hPa South 12.9 km/h 30.6 km/h 97 % 0 mm 0 W/m2
Delerius-Weather
Compliments of Weather Underground - 2 mb

Data updates at regular intervals.